createdAt,value
2022-12-03T00:01:40.612Z,2.48
2022-12-03T00:04:27.347Z,2.52
2022-12-03T00:07:13.741Z,2.59
2022-12-03T00:10:00.167Z,2.76
2022-12-03T00:12:47.283Z,2.52
2022-12-03T00:15:33.807Z,2.60
2022-12-03T00:18:20.290Z,2.54
2022-12-03T00:21:06.910Z,2.37
2022-12-03T00:23:53.435Z,2.47
2022-12-03T00:26:39.948Z,2.46
2022-12-03T00:29:27.214Z,2.35
2022-12-03T00:32:14.150Z,2.32
2022-12-03T00:35:00.894Z,2.45
2022-12-03T00:37:47.558Z,2.15
2022-12-03T00:40:34.955Z,2.40
2022-12-03T00:43:21.322Z,2.37
2022-12-03T00:46:07.786Z,2.18
2022-12-03T00:48:54.511Z,2.14
2022-12-03T00:51:41.185Z,2.31
2022-12-03T00:54:31.832Z,2.28
2022-12-03T00:57:18.793Z,2.40
2022-12-03T01:00:06.173Z,2.39
2022-12-03T01:02:52.875Z,2.20
2022-12-03T01:05:39.531Z,2.39
2022-12-03T01:08:25.858Z,2.25
2022-12-03T01:11:30.814Z,2.24
2022-12-03T01:14:19.590Z,2.19
2022-12-03T01:17:06.814Z,2.28
2022-12-03T01:19:53.343Z,2.02
2022-12-03T01:22:39.695Z,2.02
2022-12-03T01:25:26.294Z,2.08
2022-12-03T01:28:12.701Z,2.02
2022-12-03T01:31:17.741Z,1.24
2022-12-03T01:34:04.827Z,2.16
2022-12-03T01:36:53.742Z,2.01
2022-12-03T01:39:40.475Z,2.01
2022-12-03T01:42:31.497Z,2.02
2022-12-03T01:45:23.672Z,2.07
2022-12-03T01:48:16.676Z,2.17
2022-12-03T01:51:03.522Z,2.25
2022-12-03T01:53:50.244Z,2.08
2022-12-03T01:56:36.868Z,2.05
2022-12-03T01:59:36.250Z,2.08
2022-12-03T02:02:32.614Z,2.13
2022-12-03T02:05:26.293Z,2.01
2022-12-03T02:08:32.394Z,1.96
2022-12-03T02:11:41.095Z,2.11
2022-12-03T02:14:28.279Z,2.17
2022-12-03T02:17:15.017Z,2.10
2022-12-03T02:20:04.640Z,2.24
2022-12-03T02:22:51.415Z,2.13
2022-12-03T02:25:38.337Z,2.20
2022-12-03T02:28:25.123Z,2.37
2022-12-03T02:31:11.977Z,2.29
2022-12-03T02:33:58.655Z,2.18
2022-12-03T02:36:45.031Z,2.25
2022-12-03T02:39:33.643Z,2.23
2022-12-03T02:42:36.038Z,2.23
2022-12-03T02:45:29.184Z,2.14
2022-12-03T02:48:37.266Z,2.18
2022-12-03T02:51:23.978Z,2.15
2022-12-03T02:54:10.341Z,2.28
2022-12-03T02:56:56.739Z,2.18
2022-12-03T02:59:45.197Z,2.17
2022-12-03T03:02:32.339Z,2.17
2022-12-03T03:05:21.849Z,2.11
2022-12-03T03:08:09.542Z,2.14
2022-12-03T03:10:57.083Z,2.06
2022-12-03T03:13:43.790Z,1.63
2022-12-03T03:16:30.501Z,2.12
2022-12-03T03:19:17.797Z,2.09
2022-12-03T03:22:04.465Z,1.98
2022-12-03T03:24:51.057Z,2.23
2022-12-03T03:27:38.804Z,2.14
2022-12-03T03:30:25.098Z,2.17
2022-12-03T03:33:13.294Z,2.25
2022-12-03T03:36:00.941Z,2.23
2022-12-03T03:38:47.829Z,2.15
2022-12-03T03:41:35.296Z,2.31
2022-12-03T03:44:22.164Z,2.10
2022-12-03T03:47:08.918Z,2.07
2022-12-03T03:49:55.781Z,1.98
2022-12-03T03:52:43.119Z,1.97
2022-12-03T03:55:31.076Z,1.97
2022-12-03T03:58:17.703Z,2.14
2022-12-03T04:01:04.339Z,2.03
2022-12-03T04:03:53.589Z,2.17
2022-12-03T04:06:40.030Z,2.13
2022-12-03T04:09:26.415Z,2.06
2022-12-03T04:12:32.004Z,2.14
2022-12-03T04:15:20.083Z,2.24
2022-12-03T04:18:25.284Z,2.22
2022-12-03T04:21:33.563Z,1.99
2022-12-03T04:24:20.122Z,1.98
2022-12-03T04:27:25.240Z,2.07
2022-12-03T04:30:12.036Z,1.90
2022-12-03T04:33:16.884Z,1.87
2022-12-03T04:36:03.377Z,1.97
2022-12-03T04:38:49.684Z,1.90
2022-12-03T04:41:36.277Z,1.83
2022-12-03T04:44:37.609Z,1.98
2022-12-03T04:47:24.408Z,1.79
2022-12-03T04:50:11.257Z,1.80
2022-12-03T04:52:57.717Z,1.91
2022-12-03T04:55:44.180Z,2.00
2022-12-03T04:58:30.761Z,1.98
2022-12-03T05:01:17.110Z,1.69
2022-12-03T05:04:04.107Z,1.85
2022-12-03T05:06:50.795Z,1.80
2022-12-03T05:09:37.448Z,1.80
2022-12-03T05:12:23.748Z,1.92
2022-12-03T05:15:10.354Z,1.85
2022-12-03T05:17:57.041Z,1.71
2022-12-03T05:20:49.658Z,1.67
2022-12-03T05:23:39.258Z,1.77
2022-12-03T05:26:25.855Z,1.90
2022-12-03T05:29:12.383Z,1.91
2022-12-03T05:31:59.188Z,1.79
2022-12-03T05:34:45.547Z,1.78
2022-12-03T05:37:31.825Z,1.74
2022-12-03T05:40:18.559Z,1.75
2022-12-03T05:43:05.315Z,1.91
2022-12-03T05:45:51.744Z,1.86
2022-12-03T05:48:38.417Z,1.65
2022-12-03T05:51:24.769Z,1.79
2022-12-03T05:54:11.094Z,1.78
2022-12-03T05:56:57.287Z,1.79
2022-12-03T05:59:43.691Z,1.64
2022-12-03T06:02:30.093Z,1.71
2022-12-03T06:05:20.139Z,1.58
2022-12-03T06:08:06.966Z,1.68
2022-12-03T06:10:53.646Z,1.61
2022-12-03T06:13:40.328Z,1.51
2022-12-03T06:16:27.021Z,1.68
2022-12-03T06:19:13.702Z,1.52
2022-12-03T06:22:00.011Z,1.79
2022-12-03T06:24:46.697Z,1.76
2022-12-03T06:27:33.179Z,1.64
2022-12-03T06:30:19.633Z,1.61
2022-12-03T06:33:06.337Z,1.68
2022-12-03T06:35:52.691Z,1.61
2022-12-03T06:38:38.975Z,1.65
2022-12-03T06:41:25.763Z,1.61
2022-12-03T06:44:12.305Z,1.65
2022-12-03T06:46:58.868Z,1.73
2022-12-03T06:49:45.478Z,1.54
2022-12-03T06:52:31.740Z,1.45
2022-12-03T06:55:20.351Z,1.42
2022-12-03T06:58:07.158Z,1.45
2022-12-03T07:00:54.341Z,1.48
2022-12-03T07:03:40.622Z,1.63
2022-12-03T07:06:27.374Z,1.58
2022-12-03T07:09:16.283Z,1.66
2022-12-03T07:12:02.861Z,1.75
2022-12-03T07:14:49.297Z,1.89
2022-12-03T07:17:35.746Z,1.63
2022-12-03T07:20:22.005Z,1.82
2022-12-03T07:23:15.341Z,1.75
2022-12-03T07:26:01.836Z,1.77
2022-12-03T07:28:48.336Z,1.80
2022-12-03T07:31:35.184Z,1.79
2022-12-03T07:34:21.951Z,1.86
2022-12-03T07:37:08.357Z,1.87
2022-12-03T07:39:54.649Z,1.76
2022-12-03T07:42:40.978Z,1.86
2022-12-03T07:45:27.766Z,1.72
2022-12-03T07:48:14.348Z,1.92
2022-12-03T07:51:00.723Z,1.81
2022-12-03T07:53:47.194Z,1.89
2022-12-03T07:56:33.814Z,1.91
2022-12-03T07:59:21.225Z,1.90
2022-12-03T08:02:09.217Z,2.06
2022-12-03T08:04:56.133Z,1.68
2022-12-03T08:07:43.023Z,2.07
2022-12-03T08:10:32.595Z,1.46
2022-12-03T08:13:19.292Z,2.02
2022-12-03T08:16:15.829Z,2.11
2022-12-03T08:19:02.464Z,2.26
2022-12-03T08:21:53.129Z,2.04
2022-12-03T08:24:43.704Z,2.07
2022-12-03T08:27:30.754Z,2.04
2022-12-03T08:30:18.188Z,2.02
2022-12-03T08:33:23.742Z,2.06
2022-12-03T08:36:18.788Z,2.17
2022-12-03T08:39:30.274Z,2.06
2022-12-03T08:42:36.647Z,2.13
2022-12-03T08:45:29.147Z,2.16
2022-12-03T08:48:34.950Z,2.21
2022-12-03T08:51:25.356Z,2.23
2022-12-03T08:54:19.339Z,2.16
2022-12-03T08:57:27.799Z,2.17
2022-12-03T09:00:23.781Z,2.11
2022-12-03T09:03:15.993Z,2.14
2022-12-03T09:06:02.704Z,2.28
2022-12-03T09:08:50.168Z,2.16
2022-12-03T09:11:36.975Z,2.37
2022-12-03T09:14:23.811Z,2.49
2022-12-03T09:17:10.410Z,2.45
2022-12-03T09:19:57.087Z,2.58
2022-12-03T09:22:43.529Z,2.49
2022-12-03T09:25:29.779Z,2.61
2022-12-03T09:28:15.984Z,2.77
2022-12-03T09:31:02.290Z,2.94
2022-12-03T09:33:48.856Z,2.92
2022-12-03T09:36:35.578Z,2.85
2022-12-03T09:39:22.403Z,2.79
2022-12-03T09:42:09.784Z,2.89
2022-12-03T09:44:56.457Z,2.78
2022-12-03T09:47:48.956Z,2.83
2022-12-03T09:50:40.731Z,2.82
2022-12-03T09:53:27.494Z,2.98
2022-12-03T09:56:20.398Z,3.04
2022-12-03T09:59:13.910Z,2.96
2022-12-03T10:02:01.735Z,2.98
2022-12-03T10:04:49.153Z,3.19
2022-12-03T10:07:35.942Z,3.26
2022-12-03T10:10:25.202Z,3.21
2022-12-03T10:13:25.461Z,3.40
2022-12-03T10:16:16.059Z,3.42
2022-12-03T10:19:02.842Z,3.43
2022-12-03T10:21:50.788Z,3.67
2022-12-03T10:24:38.136Z,3.73
2022-12-03T10:27:30.322Z,3.78
2022-12-03T10:30:20.344Z,3.78
2022-12-03T10:33:18.901Z,3.61
2022-12-03T10:36:26.564Z,3.55
2022-12-03T10:39:16.295Z,3.66
2022-12-03T10:42:16.148Z,3.79
2022-12-03T10:45:16.319Z,3.55
2022-12-03T10:48:11.052Z,3.70
2022-12-03T10:51:07.143Z,3.78
2022-12-03T10:53:54.403Z,3.81
2022-12-03T10:56:40.933Z,3.80
2022-12-03T10:59:32.881Z,3.86
2022-12-03T11:02:22.711Z,3.79
2022-12-03T11:05:15.798Z,3.86
2022-12-03T11:08:03.984Z,3.99
2022-12-03T11:11:05.861Z,4.14
2022-12-03T11:13:57.526Z,4.02
2022-12-03T11:16:47.151Z,3.97
2022-12-03T11:19:36.396Z,4.04
2022-12-03T11:22:27.110Z,3.84
2022-12-03T11:25:28.401Z,4.24
2022-12-03T11:28:14.740Z,4.34
2022-12-03T11:31:09.179Z,4.28
2022-12-03T11:34:18.277Z,4.07
2022-12-03T11:37:10.972Z,4.10
2022-12-03T11:40:00.618Z,4.03
2022-12-03T11:42:48.869Z,4.13
2022-12-03T11:45:38.161Z,3.78
2022-12-03T11:48:24.761Z,3.63
2022-12-03T11:51:20.476Z,3.71
2022-12-03T11:54:18.881Z,3.79
2022-12-03T11:57:26.309Z,3.58
2022-12-03T12:00:19.761Z,3.75
2022-12-03T12:03:23.727Z,3.59
2022-12-03T12:06:11.930Z,3.55
2022-12-03T12:08:59.747Z,3.32
2022-12-03T12:11:46.191Z,3.20
2022-12-03T12:14:32.478Z,3.26
2022-12-03T12:17:36.589Z,3.26
2022-12-03T12:20:27.923Z,3.28
2022-12-03T12:23:28.071Z,3.22
2022-12-03T12:26:14.877Z,3.28
2022-12-03T12:29:01.557Z,3.27
2022-12-03T12:31:54.134Z,3.32
2022-12-03T12:34:50.426Z,3.38
2022-12-03T12:37:47.727Z,3.34
2022-12-03T12:40:38.324Z,3.34
2022-12-03T12:43:31.686Z,3.27
2022-12-03T12:46:46.690Z,3.32
2022-12-03T12:49:26.934Z,3.17
2022-12-03T12:52:14.955Z,3.13
2022-12-03T12:55:04.883Z,3.04
2022-12-03T12:57:51.974Z,3.10
2022-12-03T13:00:38.721Z,3.12
2022-12-03T13:03:28.665Z,2.96
2022-12-03T13:06:16.747Z,2.56
2022-12-03T13:09:03.070Z,2.61
2022-12-03T13:12:00.760Z,2.56
2022-12-03T13:14:47.707Z,2.56
2022-12-03T13:17:34.439Z,2.76
2022-12-03T13:20:21.032Z,2.79
2022-12-03T13:23:22.450Z,2.86
2022-12-03T13:26:39.092Z,2.92
2022-12-03T13:29:27.453Z,2.83
2022-12-03T13:32:16.676Z,2.40
2022-12-03T13:35:11.833Z,2.78
2022-12-03T13:37:59.122Z,2.77
2022-12-03T13:40:46.127Z,2.61
2022-12-03T13:43:39.904Z,2.54
2022-12-03T13:46:34.581Z,2.80
2022-12-03T13:49:23.931Z,2.71
2022-12-03T13:52:16.207Z,2.83
2022-12-03T13:55:03.868Z,2.75
2022-12-03T13:57:50.317Z,2.65
2022-12-03T14:00:37.583Z,2.76
2022-12-03T14:03:24.294Z,2.69
2022-12-03T14:06:10.664Z,2.68
2022-12-03T14:08:57.319Z,2.49
2022-12-03T14:12:02.213Z,2.55
2022-12-03T14:14:48.875Z,2.61
2022-12-03T14:17:35.437Z,2.48
2022-12-03T14:20:22.123Z,2.51
2022-12-03T14:23:08.559Z,2.56
2022-12-03T14:25:55.261Z,2.40
2022-12-03T14:28:41.974Z,2.48
2022-12-03T14:31:28.768Z,2.50
2022-12-03T14:34:15.474Z,2.69
2022-12-03T14:37:04.907Z,2.64
2022-12-03T14:39:51.276Z,2.55
2022-12-03T14:42:37.988Z,2.59
2022-12-03T14:45:26.112Z,2.57
2022-12-03T14:48:12.584Z,2.42
2022-12-03T14:50:59.787Z,2.34
2022-12-03T14:53:46.259Z,2.30
2022-12-03T14:56:32.520Z,2.36
2022-12-03T14:59:24.411Z,2.25
2022-12-03T15:02:16.783Z,2.43
2022-12-03T15:05:03.825Z,2.42
2022-12-03T15:07:50.508Z,2.32
2022-12-03T15:10:37.125Z,2.38
2022-12-03T15:13:23.817Z,2.28
2022-12-03T15:16:10.139Z,2.29
2022-12-03T15:18:56.968Z,2.27
2022-12-03T15:21:43.658Z,2.29
2022-12-03T15:24:31.304Z,2.27
2022-12-03T15:27:18.179Z,2.24
2022-12-03T15:30:06.089Z,2.23
2022-12-03T15:32:52.600Z,2.23
2022-12-03T15:35:39.338Z,2.37
2022-12-03T15:38:26.797Z,2.33
2022-12-03T15:41:24.543Z,2.07
2022-12-03T15:44:10.790Z,2.07
2022-12-03T15:46:57.101Z,2.09
2022-12-03T15:49:43.409Z,2.24
2022-12-03T15:52:29.913Z,2.09
2022-12-03T15:55:21.715Z,2.07
2022-12-03T15:58:08.439Z,2.03
2022-12-03T16:00:55.063Z,1.95
2022-12-03T16:03:41.887Z,1.82
2022-12-03T16:06:28.300Z,1.97
2022-12-03T16:09:14.871Z,1.83
2022-12-03T16:12:01.286Z,1.78
2022-12-03T16:14:47.905Z,1.92
2022-12-03T16:17:34.322Z,1.98
2022-12-03T16:20:20.580Z,1.90
2022-12-03T16:23:07.197Z,1.78
2022-12-03T16:25:53.854Z,1.76
2022-12-03T16:28:40.159Z,1.79
2022-12-03T16:31:26.951Z,1.89
2022-12-03T16:34:13.392Z,1.84
2022-12-03T16:36:59.990Z,1.75
2022-12-03T16:39:46.625Z,1.71
2022-12-03T16:42:33.498Z,1.78
2022-12-03T16:45:51.626Z,1.76
2022-12-03T16:48:38.313Z,1.81
2022-12-03T16:51:30.303Z,1.69
2022-12-03T16:54:17.037Z,1.56
2022-12-03T16:57:04.334Z,1.60
2022-12-03T16:59:51.179Z,1.55
2022-12-03T17:02:38.920Z,1.66
2022-12-03T17:05:27.629Z,1.69
2022-12-03T17:08:16.367Z,1.57
2022-12-03T17:11:04.194Z,1.46
2022-12-03T17:13:50.568Z,1.65
2022-12-03T17:16:37.249Z,1.57
2022-12-03T17:19:24.649Z,1.68
2022-12-03T17:22:11.229Z,1.53
2022-12-03T17:24:57.607Z,1.59
2022-12-03T17:27:45.486Z,1.58
2022-12-03T17:30:32.348Z,1.60
2022-12-03T17:33:18.932Z,1.51
2022-12-03T17:36:06.129Z,1.61
2022-12-03T17:38:52.471Z,1.43
2022-12-03T17:41:38.867Z,1.49
2022-12-03T17:44:25.472Z,1.65
2022-12-03T17:47:13.799Z,1.50
2022-12-03T17:50:00.379Z,1.52
2022-12-03T17:52:46.702Z,1.51
2022-12-03T17:55:38.532Z,1.52
2022-12-03T17:58:29.771Z,1.47
2022-12-03T18:01:16.109Z,1.45
2022-12-03T18:04:02.990Z,1.59
2022-12-03T18:06:49.601Z,1.52
2022-12-03T18:09:36.222Z,1.53
2022-12-03T18:12:22.674Z,1.52
2022-12-03T18:15:10.450Z,1.55
2022-12-03T18:17:56.991Z,1.57
2022-12-03T18:20:43.629Z,1.33
2022-12-03T18:23:30.809Z,1.48
2022-12-03T18:26:17.098Z,1.48
2022-12-03T18:29:03.797Z,1.48
2022-12-03T18:31:50.231Z,1.49
2022-12-03T18:34:36.804Z,1.34
2022-12-03T18:37:27.254Z,1.33
2022-12-03T18:40:27.244Z,1.26
2022-12-03T18:43:15.807Z,1.38
2022-12-03T18:46:04.378Z,1.35
2022-12-03T18:48:51.070Z,1.28
2022-12-03T18:51:37.772Z,1.30
2022-12-03T18:54:24.379Z,1.19
2022-12-03T18:57:11.016Z,1.25
2022-12-03T18:59:58.320Z,1.23
2022-12-03T19:03:02.578Z,1.26
2022-12-03T19:05:50.231Z,1.25
2022-12-03T19:08:36.946Z,1.15
2022-12-03T19:11:23.839Z,1.13
2022-12-03T19:14:11.060Z,1.26
2022-12-03T19:16:57.456Z,1.33
2022-12-03T19:19:44.159Z,1.21
2022-12-03T19:22:30.501Z,1.31
2022-12-03T19:25:18.984Z,1.26
2022-12-03T19:28:07.250Z,1.37
2022-12-03T19:31:02.469Z,1.45
2022-12-03T19:33:49.284Z,1.34
2022-12-03T19:36:35.741Z,1.29
2022-12-03T19:39:22.596Z,1.40
2022-12-03T19:42:10.049Z,1.48
2022-12-03T19:44:56.482Z,1.31
2022-12-03T19:47:42.966Z,1.41
2022-12-03T19:50:30.720Z,1.43
2022-12-03T19:53:17.773Z,1.44
2022-12-03T19:56:06.285Z,1.49
2022-12-03T19:58:55.396Z,1.45
2022-12-03T20:01:43.438Z,1.46
2022-12-03T20:04:30.318Z,1.39
2022-12-03T20:07:18.077Z,1.48
2022-12-03T20:10:05.856Z,1.48
2022-12-03T20:12:52.479Z,1.50
2022-12-03T20:15:38.909Z,1.40
2022-12-03T20:18:27.636Z,1.33
2022-12-03T20:21:16.284Z,1.58
2022-12-03T20:24:03.726Z,1.39
2022-12-03T20:26:50.200Z,1.33
2022-12-03T20:29:36.655Z,1.37
2022-12-03T20:32:23.081Z,0.88
2022-12-03T20:35:09.963Z,1.31
2022-12-03T20:37:56.377Z,1.23
2022-12-03T20:40:42.941Z,1.12
2022-12-03T20:43:29.806Z,1.17
2022-12-03T20:46:28.846Z,1.13
2022-12-03T20:49:15.623Z,1.19
2022-12-03T20:52:04.579Z,0.99
2022-12-03T20:54:51.616Z,1.41
2022-12-03T20:57:38.350Z,1.18
2022-12-03T21:00:25.204Z,1.34
2022-12-03T21:03:11.586Z,1.19
2022-12-03T21:06:01.375Z,1.03
2022-12-03T21:08:47.810Z,1.17
2022-12-03T21:11:36.193Z,1.19
2022-12-03T21:14:23.096Z,1.20
2022-12-03T21:17:10.237Z,1.06
2022-12-03T21:19:57.333Z,1.10
2022-12-03T21:22:44.180Z,1.15
2022-12-03T21:25:31.167Z,1.09
2022-12-03T21:28:17.815Z,1.12
2022-12-03T21:31:07.357Z,1.07
2022-12-03T21:33:55.553Z,1.02
2022-12-03T21:36:42.341Z,1.07
2022-12-03T21:39:29.108Z,1.22
2022-12-03T21:42:34.530Z,1.16
2022-12-03T21:45:25.094Z,1.08
2022-12-03T21:48:12.333Z,1.12
2022-12-03T21:51:06.934Z,1.07
2022-12-03T21:53:53.527Z,1.14
2022-12-03T21:56:39.879Z,1.12
2022-12-03T21:59:26.623Z,1.12
2022-12-03T22:02:13.497Z,1.14
2022-12-03T22:05:00.255Z,1.12
2022-12-03T22:07:47.767Z,1.13
2022-12-03T22:10:35.831Z,1.17
2022-12-03T22:13:22.044Z,1.14
2022-12-03T22:16:12.094Z,1.35
2022-12-03T22:18:58.927Z,1.30
2022-12-03T22:21:46.495Z,1.32
2022-12-03T22:24:32.844Z,1.23
2022-12-03T22:27:19.216Z,1.16
2022-12-03T22:30:06.982Z,1.27
2022-12-03T22:32:53.288Z,1.22
2022-12-03T22:35:39.977Z,1.24
2022-12-03T22:38:26.801Z,1.22
2022-12-03T22:41:14.561Z,1.41
2022-12-03T22:44:01.198Z,1.23
2022-12-03T22:46:48.098Z,1.39
2022-12-03T22:49:35.005Z,1.28
2022-12-03T22:52:21.600Z,1.24
2022-12-03T22:55:09.131Z,1.15
2022-12-03T22:57:56.009Z,1.07
2022-12-03T23:00:42.291Z,1.13
2022-12-03T23:03:28.719Z,1.14
2022-12-03T23:06:15.813Z,1.18
2022-12-03T23:09:04.030Z,1.18
2022-12-03T23:11:50.926Z,1.29
2022-12-03T23:14:37.530Z,1.39
2022-12-03T23:17:23.629Z,1.30
2022-12-03T23:20:10.769Z,1.32
2022-12-03T23:22:57.633Z,1.32
2022-12-03T23:25:44.194Z,1.35
2022-12-03T23:28:32.785Z,1.24
2022-12-03T23:31:28.796Z,1.35
2022-12-03T23:34:15.390Z,1.34
2022-12-03T23:37:03.380Z,1.29
2022-12-03T23:39:49.831Z,1.31
2022-12-03T23:42:36.536Z,1.26
2022-12-03T23:45:23.650Z,1.33
2022-12-03T23:48:10.099Z,1.32
2022-12-03T23:50:56.326Z,1.43
2022-12-03T23:53:43.139Z,1.26
2022-12-03T23:56:30.900Z,1.30
2022-12-03T23:59:17.760Z,1.33
